createdAt,value
2022-09-03T00:00:25.270Z,101291.63
2022-09-03T00:02:59.942Z,101298.69
2022-09-03T00:05:36.816Z,101279.97
2022-09-03T00:08:08.676Z,101286.19
2022-09-03T00:10:42.864Z,101286.81
2022-09-03T00:13:10.912Z,101276.31
2022-09-03T00:15:41.356Z,101276.59
2022-09-03T00:18:12.116Z,101282.59
2022-09-03T00:20:43.569Z,101283.41
2022-09-03T00:23:16.447Z,101282.94
2022-09-03T00:25:46.566Z,101281.91
2022-09-03T00:28:18.693Z,101286.72
2022-09-03T00:30:47.447Z,101290.03
2022-09-03T00:33:21.812Z,101289.22
2022-09-03T00:35:54.060Z,101280.88
2022-09-03T00:38:22.177Z,101288.03
2022-09-03T00:41:07.723Z,101287.22
2022-09-03T00:43:48.067Z,101282.03
2022-09-03T00:46:22.361Z,101285.13
2022-09-03T00:49:00.700Z,101286.81
2022-09-03T00:51:35.960Z,101278.25
2022-09-03T00:54:07.283Z,101290.25
2022-09-03T00:56:39.468Z,101284.97
2022-09-03T00:59:19.212Z,101284.25
2022-09-03T01:01:52.234Z,101279.91
2022-09-03T01:04:30.205Z,101284.72
2022-09-03T01:07:07.024Z,101273.97
2022-09-03T01:09:48.890Z,101265.06
2022-09-03T01:12:21.753Z,101271.84
2022-09-03T01:14:59.793Z,101270.66
2022-09-03T01:17:38.190Z,101275.78
2022-09-03T01:20:15.822Z,101273.63
2022-09-03T01:23:20.278Z,101272.59
2022-09-03T01:25:54.560Z,101278.38
2022-09-03T01:28:43.753Z,101275.38
2022-09-03T01:31:19.110Z,101274.59
2022-09-03T01:33:51.831Z,101273.44
2022-09-03T01:36:24.300Z,101280.22
2022-09-03T01:38:56.273Z,101280.00
2022-09-03T01:41:47.495Z,101287.22
2022-09-03T01:44:23.492Z,101283.78
2022-09-03T01:46:55.372Z,101280.75
2022-09-03T01:49:25.869Z,101279.94
2022-09-03T01:51:59.993Z,101275.13
2022-09-03T01:54:37.390Z,101277.91
2022-09-03T01:57:31.280Z,101275.44
2022-09-03T02:00:08.253Z,101268.06
2022-09-03T02:02:36.883Z,101270.34
2022-09-03T02:05:07.928Z,101272.09
2022-09-03T02:07:38.085Z,101272.31
2022-09-03T02:10:08.823Z,101272.91
2022-09-03T02:12:38.363Z,101271.53
2022-09-03T02:15:12.326Z,101273.47
2022-09-03T02:17:42.732Z,101274.88
2022-09-03T02:20:12.751Z,101273.47
2022-09-03T02:22:40.764Z,101277.81
2022-09-03T02:25:10.917Z,101284.09
2022-09-03T02:27:38.997Z,101281.38
2022-09-03T02:30:09.999Z,101279.41
2022-09-03T02:32:37.790Z,101276.22
2022-09-03T02:35:05.981Z,101276.47
2022-09-03T02:37:34.867Z,101283.00
2022-09-03T02:40:06.600Z,101280.66
2022-09-03T02:42:34.331Z,101280.94
2022-09-03T02:45:10.779Z,101279.59
2022-09-03T02:47:41.784Z,101276.84
2022-09-03T02:50:10.436Z,101277.94
2022-09-03T02:52:38.464Z,101276.31
2022-09-03T02:55:07.319Z,101271.97
2022-09-03T02:57:35.071Z,101264.91
2022-09-03T03:00:03.128Z,101269.00
2022-09-03T03:02:30.925Z,101275.78
2022-09-03T03:05:00.179Z,101271.97
2022-09-03T03:07:31.376Z,101270.34
2022-09-03T03:09:59.765Z,101269.78
2022-09-03T03:12:27.484Z,101261.38
2022-09-03T03:14:55.215Z,101274.09
2022-09-03T03:17:22.926Z,101274.41
2022-09-03T03:19:50.649Z,101277.13
2022-09-03T03:22:19.683Z,101275.22
2022-09-03T03:24:50.329Z,101262.72
2022-09-03T03:27:18.862Z,101265.97
2022-09-03T03:29:46.574Z,101270.06
2022-09-03T03:32:14.288Z,101268.16
2022-09-03T03:34:41.978Z,101270.84
2022-09-03T03:37:09.688Z,101275.78
2022-09-03T03:39:38.786Z,101268.63
2022-09-03T03:42:06.632Z,101277.59
2022-09-03T03:44:34.337Z,101271.34
2022-09-03T03:47:03.045Z,101275.16
2022-09-03T03:49:30.744Z,101272.47
2022-09-03T03:51:58.479Z,101277.50
2022-09-03T03:54:26.500Z,101279.03
2022-09-03T03:56:55.940Z,101286.09
2022-09-03T03:59:23.702Z,101287.69
2022-09-03T04:01:52.371Z,101288.00
2022-09-03T04:04:20.179Z,101293.66
2022-09-03T04:06:48.376Z,101285.13
2022-09-03T04:09:16.080Z,101285.22
2022-09-03T04:11:43.784Z,101280.38
2022-09-03T04:14:12.867Z,101278.72
2022-09-03T04:16:40.673Z,101280.66
2022-09-03T04:19:08.447Z,101274.69
2022-09-03T04:21:36.687Z,101277.06
2022-09-03T04:24:06.065Z,101269.78
2022-09-03T04:26:34.620Z,101273.00
2022-09-03T04:29:06.119Z,101267.88
2022-09-03T04:31:36.463Z,101272.06
2022-09-03T04:34:06.466Z,101277.34
2022-09-03T04:36:34.925Z,101273.28
2022-09-03T04:39:04.109Z,101275.19
2022-09-03T04:41:32.784Z,101278.16
2022-09-03T04:44:00.869Z,101286.34
2022-09-03T04:46:33.191Z,101285.53
2022-09-03T04:49:04.083Z,101282.56
2022-09-03T04:51:31.944Z,101284.47
2022-09-03T04:54:01.201Z,101285.28
2022-09-03T04:56:30.251Z,101280.09
2022-09-03T04:58:59.622Z,101283.63
2022-09-03T05:01:31.615Z,101284.72
2022-09-03T05:04:00.104Z,101281.47
2022-09-03T05:06:30.704Z,101289.38
2022-09-03T05:08:58.944Z,101287.19
2022-09-03T05:11:27.825Z,101285.53
2022-09-03T05:13:56.828Z,101283.38
2022-09-03T05:16:25.608Z,101296.44
2022-09-03T05:18:53.960Z,101290.47
2022-09-03T05:21:22.590Z,101283.38
2022-09-03T05:23:52.703Z,101284.19
2022-09-03T05:26:21.964Z,101284.19
2022-09-03T05:28:49.946Z,101295.91
2022-09-03T05:31:19.505Z,101296.44
2022-09-03T05:33:48.368Z,101286.66
2022-09-03T05:36:17.382Z,101290.16
2022-09-03T05:38:45.632Z,101282.84
2022-09-03T05:41:15.620Z,101286.09
2022-09-03T05:43:44.486Z,101286.91
2022-09-03T05:46:13.983Z,101283.66
2022-09-03T05:48:43.029Z,101278.44
2022-09-03T05:51:12.721Z,101289.28
2022-09-03T05:53:41.313Z,101282.81
2022-09-03T05:56:12.184Z,101283.34
2022-09-03T05:58:44.177Z,101283.38
2022-09-03T06:01:14.157Z,101286.31
2022-09-03T06:03:42.962Z,101279.78
2022-09-03T06:06:11.248Z,101283.91
2022-09-03T06:08:39.208Z,101280.00
2022-09-03T06:11:07.566Z,101276.81
2022-09-03T06:13:35.527Z,101271.13
2022-09-03T06:16:08.838Z,101277.91
2022-09-03T06:18:36.830Z,101292.00
2022-09-03T06:21:06.715Z,101288.53
2022-09-03T06:23:35.227Z,101283.09
2022-09-03T06:26:06.154Z,101290.16
2022-09-03T06:28:35.967Z,101291.25
2022-09-03T06:31:06.943Z,101294.78
2022-09-03T06:33:36.884Z,101292.84
2022-09-03T06:36:08.860Z,101295.03
2022-09-03T06:38:38.902Z,101289.03
2022-09-03T06:41:08.202Z,101296.66
2022-09-03T06:43:37.589Z,101296.13
2022-09-03T06:46:08.678Z,101298.03
2022-09-03T06:48:37.101Z,101298.28
2022-09-03T06:51:07.120Z,101304.84
2022-09-03T06:53:35.978Z,101305.66
2022-09-03T06:56:07.742Z,101306.19
2022-09-03T06:58:43.120Z,101308.66
2022-09-03T07:01:14.426Z,101306.72
2022-09-03T07:03:43.681Z,101296.97
2022-09-03T07:06:13.219Z,101298.59
2022-09-03T07:08:42.392Z,101301.59
2022-09-03T07:11:11.958Z,101304.06
2022-09-03T07:13:41.675Z,101301.88
2022-09-03T07:16:10.965Z,101300.75
2022-09-03T07:18:40.658Z,101302.94
2022-09-03T07:21:10.931Z,101304.84
2022-09-03T07:23:39.498Z,101298.06
2022-09-03T07:26:11.152Z,101300.75
2022-09-03T07:28:40.430Z,101307.84
2022-09-03T07:31:11.613Z,101300.50
2022-09-03T07:33:40.720Z,101297.47
2022-09-03T07:36:10.014Z,101304.03
2022-09-03T07:38:38.154Z,101304.00
2022-09-03T07:41:08.115Z,101297.44
2022-09-03T07:43:37.063Z,101303.88
2022-09-03T07:46:04.781Z,101303.06
2022-09-03T07:48:37.192Z,101301.38
2022-09-03T07:51:07.171Z,101296.84
2022-09-03T07:53:35.096Z,101299.75
2022-09-03T07:56:04.172Z,101296.97
2022-09-03T07:58:32.615Z,101300.75
2022-09-03T08:01:00.641Z,101301.09
2022-09-03T08:03:29.641Z,101306.69
2022-09-03T08:06:03.404Z,101298.22
2022-09-03T08:08:34.545Z,101291.31
2022-09-03T08:11:10.852Z,101292.44
2022-09-03T08:13:40.724Z,101285.75
2022-09-03T08:16:09.368Z,101297.44
2022-09-03T08:18:39.104Z,101294.13
2022-09-03T08:21:08.361Z,101289.38
2022-09-03T08:23:39.440Z,101295.78
2022-09-03T08:26:07.881Z,101299.28
2022-09-03T08:28:36.067Z,101298.97
2022-09-03T08:31:10.045Z,101293.53
2022-09-03T08:33:38.269Z,101294.59
2022-09-03T08:36:07.791Z,101293.09
2022-09-03T08:38:36.603Z,101294.38
2022-09-03T08:41:08.512Z,101296.13
2022-09-03T08:43:44.793Z,101296.13
2022-09-03T08:46:12.832Z,101295.00
2022-09-03T08:48:40.583Z,101305.38
2022-09-03T08:51:09.483Z,101295.50
2022-09-03T08:53:45.223Z,101294.03
2022-09-03T08:56:20.625Z,101290.47
2022-09-03T08:58:48.358Z,101290.09
2022-09-03T09:01:26.657Z,101297.19
2022-09-03T09:03:58.345Z,101290.22
2022-09-03T09:06:31.108Z,101285.28
2022-09-03T09:09:04.819Z,101287.91
2022-09-03T09:11:47.731Z,101283.38
2022-09-03T09:14:20.655Z,101277.50
2022-09-03T09:16:53.444Z,101285.38
2022-09-03T09:19:31.583Z,101283.03
2022-09-03T09:22:03.039Z,101276.28
2022-09-03T09:24:38.128Z,101271.09
2022-09-03T09:27:07.700Z,101263.09
2022-09-03T09:29:37.608Z,101272.00
2022-09-03T09:32:06.204Z,101271.69
2022-09-03T09:34:36.690Z,101263.38
2022-09-03T09:37:06.400Z,101268.56
2022-09-03T09:39:34.123Z,101266.94
2022-09-03T09:42:08.173Z,101281.44
2022-09-03T09:44:38.049Z,101273.84
2022-09-03T09:47:08.428Z,101264.59
2022-09-03T09:49:37.643Z,101266.31
2022-09-03T09:52:11.855Z,101266.13
2022-09-03T09:54:40.679Z,101257.94
2022-09-03T09:57:18.464Z,101263.81
2022-09-03T09:59:46.917Z,101259.56
2022-09-03T10:02:21.887Z,101255.47
2022-09-03T10:04:50.003Z,101250.63
2022-09-03T10:07:24.071Z,101263.41
2022-09-03T10:10:03.066Z,101260.47
2022-09-03T10:12:35.859Z,101257.09
2022-09-03T10:15:13.928Z,101251.59
2022-09-03T10:17:48.650Z,101256.38
2022-09-03T10:20:31.079Z,101247.88
2022-09-03T10:23:02.461Z,101247.94
2022-09-03T10:25:39.004Z,101239.91
2022-09-03T10:28:10.578Z,101242.53
2022-09-03T10:30:54.056Z,101230.66
2022-09-03T10:33:25.407Z,101234.06
2022-09-03T10:35:55.112Z,101228.75
2022-09-03T10:38:28.568Z,101229.91
2022-09-03T10:41:04.787Z,101224.53
2022-09-03T10:43:48.024Z,101221.06
2022-09-03T10:46:23.393Z,101215.25
2022-09-03T10:49:08.223Z,101230.00
2022-09-03T10:51:37.982Z,101217.94
2022-09-03T10:54:20.682Z,101209.63
2022-09-03T10:56:54.715Z,101221.84
2022-09-03T10:59:37.313Z,101203.31
2022-09-03T11:02:22.583Z,101208.03
2022-09-03T11:04:54.892Z,101204.44
2022-09-03T11:07:25.284Z,101196.81
2022-09-03T11:09:58.143Z,101197.34
2022-09-03T11:12:29.484Z,101193.41
2022-09-03T11:15:03.113Z,101195.63
2022-09-03T11:17:35.049Z,101180.44
2022-09-03T11:20:12.406Z,101205.69
2022-09-03T11:22:43.202Z,101191.13
2022-09-03T11:25:12.783Z,101192.75
2022-09-03T11:27:56.585Z,101193.66
2022-09-03T11:30:29.491Z,101195.09
2022-09-03T11:33:00.416Z,101186.03
2022-09-03T11:35:30.016Z,101187.28
2022-09-03T11:38:00.717Z,101186.75
2022-09-03T11:40:34.817Z,101193.00
2022-09-03T11:43:13.871Z,101190.44
2022-09-03T11:45:43.129Z,101180.19
2022-09-03T11:48:33.075Z,101186.63
2022-09-03T11:51:00.788Z,101186.34
2022-09-03T11:53:35.444Z,101180.31
2022-09-03T11:56:18.108Z,101181.50
2022-09-03T11:58:47.478Z,101176.41
2022-09-03T12:01:19.020Z,101175.78
2022-09-03T12:03:49.919Z,101164.69
2022-09-03T12:06:44.355Z,101171.50
2022-09-03T12:09:46.110Z,101166.53
2022-09-03T12:12:28.011Z,101188.09
2022-09-03T12:15:00.156Z,101173.47
2022-09-03T12:17:33.983Z,101166.59
2022-09-03T12:20:03.572Z,101164.34
2022-09-03T12:22:31.759Z,101172.44
2022-09-03T12:25:08.953Z,101174.41
2022-09-03T12:27:39.935Z,101165.22
2022-09-03T12:30:16.706Z,101171.19
2022-09-03T12:32:46.420Z,101170.38
2022-09-03T12:35:58.101Z,101169.81
2022-09-03T12:38:07.552Z,101163.63
2022-09-03T12:40:36.165Z,101166.59
2022-09-03T12:43:49.891Z,101160.91
2022-09-03T12:46:17.596Z,101162.53
2022-09-03T12:51:52.491Z,101149.09
2022-09-03T12:54:23.184Z,101155.72
2022-09-03T12:56:55.019Z,101152.63
2022-09-03T12:59:23.943Z,101144.31
2022-09-03T13:01:53.158Z,101140.09
2022-09-03T13:04:26.774Z,101132.56
2022-09-03T13:06:57.144Z,101126.03
2022-09-03T13:09:29.783Z,101126.38
2022-09-03T13:11:59.051Z,101133.53
2022-09-03T13:14:27.800Z,101128.91
2022-09-03T13:17:09.653Z,101122.53
2022-09-03T13:19:45.152Z,101122.38
2022-09-03T13:22:17.871Z,101124.00
2022-09-03T13:24:56.880Z,101119.50
2022-09-03T13:27:29.729Z,101129.41
2022-09-03T13:30:06.876Z,101122.25
2022-09-03T13:32:43.189Z,101133.97
2022-09-03T13:35:18.600Z,101138.09
2022-09-03T13:37:49.180Z,101134.13
2022-09-03T13:40:21.829Z,101136.09
2022-09-03T13:42:54.321Z,101140.78
2022-09-03T13:45:29.349Z,101129.50
2022-09-03T13:48:18.573Z,101121.59
2022-09-03T13:50:51.462Z,101128.34
2022-09-03T13:53:23.480Z,101125.38
2022-09-03T13:55:54.227Z,101131.53
2022-09-03T13:58:27.676Z,101115.59
2022-09-03T14:01:08.800Z,101121.31
2022-09-03T14:03:45.666Z,101116.56
2022-09-03T14:06:27.382Z,101109.75
2022-09-03T14:09:04.840Z,101115.44
2022-09-03T14:11:38.922Z,101113.66
2022-09-03T14:14:14.963Z,101115.72
2022-09-03T14:16:46.163Z,101107.28
2022-09-03T14:19:17.072Z,101109.00
2022-09-03T14:21:49.127Z,101096.78
2022-09-03T14:24:22.087Z,101105.78
2022-09-03T14:26:52.567Z,101097.44
2022-09-03T14:29:22.275Z,101105.13
2022-09-03T14:32:05.778Z,101102.16
2022-09-03T14:34:43.925Z,101094.19
2022-09-03T14:37:22.249Z,101109.72
2022-09-03T14:39:53.977Z,101112.19
2022-09-03T14:42:38.081Z,101108.56
2022-09-03T14:45:25.505Z,101109.34
2022-09-03T14:48:06.428Z,101106.63
2022-09-03T14:50:46.091Z,101104.72
2022-09-03T14:53:38.341Z,101102.97
2022-09-03T14:56:21.883Z,101094.88
2022-09-03T14:59:13.864Z,101094.56
2022-09-03T15:01:42.188Z,101093.75
2022-09-03T15:04:39.332Z,101099.56
2022-09-03T15:07:18.055Z,101104.03
2022-09-03T15:09:54.616Z,101103.56
2022-09-03T15:12:24.835Z,101100.66
2022-09-03T15:14:55.023Z,101097.53
2022-09-03T15:17:34.712Z,101113.03
2022-09-03T15:20:17.356Z,101096.22
2022-09-03T15:23:13.194Z,101113.91
2022-09-03T15:25:54.133Z,101103.97
2022-09-03T15:28:26.016Z,101106.00
2022-09-03T15:30:57.848Z,101108.31
2022-09-03T15:33:31.659Z,101095.25
2022-09-03T15:36:12.544Z,101107.69
2022-09-03T15:38:50.737Z,101109.78
2022-09-03T15:41:39.841Z,101106.72
2022-09-03T15:44:10.472Z,101108.66
2022-09-03T15:46:50.572Z,101108.63
2022-09-03T15:49:25.554Z,101114.16
2022-09-03T15:52:00.998Z,101103.81
2022-09-03T15:54:36.215Z,101106.47
2022-09-03T15:57:09.108Z,101107.47
2022-09-03T15:59:41.524Z,101108.34
2022-09-03T16:02:12.745Z,101108.47
2022-09-03T16:04:52.068Z,101112.06
2022-09-03T16:07:23.619Z,101109.41
2022-09-03T16:10:23.347Z,101114.16
2022-09-03T16:12:59.449Z,101112.06
2022-09-03T16:15:29.985Z,101110.81
2022-09-03T16:18:00.429Z,101113.59
2022-09-03T16:20:35.057Z,101113.47
2022-09-03T16:23:07.099Z,101111.56
2022-09-03T16:25:38.497Z,101110.09
2022-09-03T16:28:15.004Z,101112.47
2022-09-03T16:30:53.703Z,101114.59
2022-09-03T16:33:27.759Z,101124.44
2022-09-03T16:35:59.773Z,101125.19
2022-09-03T16:38:35.163Z,101136.34
2022-09-03T16:41:15.424Z,101125.13
2022-09-03T16:43:47.432Z,101131.69
2022-09-03T16:46:24.138Z,101131.69
2022-09-03T16:49:06.006Z,101145.44
2022-09-03T16:51:41.657Z,101134.81
2022-09-03T16:54:20.291Z,101130.94
2022-09-03T16:56:55.767Z,101131.28
2022-09-03T16:59:54.375Z,101129.53
2022-09-03T17:02:49.667Z,101127.63
2022-09-03T17:05:28.648Z,101117.81
2022-09-03T17:08:06.876Z,101130.09
2022-09-03T17:10:41.697Z,101124.25
2022-09-03T17:13:23.883Z,101120.22
2022-09-03T17:15:55.809Z,101118.69
2022-09-03T17:18:34.090Z,101117.53
2022-09-03T17:21:13.377Z,101117.03
2022-09-03T17:24:04.564Z,101115.94
2022-09-03T17:26:36.159Z,101118.41
2022-09-03T17:29:14.454Z,101124.38
2022-09-03T17:31:51.194Z,101131.78
2022-09-03T17:34:35.180Z,101126.38
2022-09-03T17:37:09.747Z,101123.16
2022-09-03T17:39:53.360Z,101133.84
2022-09-03T17:42:28.793Z,101133.59
2022-09-03T17:45:06.885Z,101134.84
2022-09-03T17:48:06.636Z,101144.41
2022-09-03T17:50:45.088Z,101141.03
2022-09-03T17:53:20.145Z,101140.75
2022-09-03T17:55:55.185Z,101144.19
2022-09-03T17:58:28.087Z,101151.06
2022-09-03T18:01:04.733Z,101158.81
2022-09-03T18:03:42.118Z,101154.75
2022-09-03T18:06:12.192Z,101160.63
2022-09-03T18:08:47.385Z,101165.09
2022-09-03T18:11:20.926Z,101172.59
2022-09-03T18:13:52.336Z,101177.63
2022-09-03T18:16:26.200Z,101176.81
2022-09-03T18:19:01.563Z,101176.00
2022-09-03T18:21:51.928Z,101179.72
2022-09-03T18:24:43.996Z,101186.72
2022-09-03T18:27:32.745Z,101192.41
2022-09-03T18:30:21.809Z,101196.72
2022-09-03T18:33:07.404Z,101196.72
2022-09-03T18:35:54.867Z,101203.81
2022-09-03T18:38:44.564Z,101209.50
2022-09-03T18:41:59.366Z,101210.13
2022-09-03T18:45:18.234Z,101214.28
2022-09-03T18:48:15.295Z,101215.31
2022-09-03T18:51:09.836Z,101224.19
2022-09-03T18:54:04.322Z,101220.97
2022-09-03T18:56:56.653Z,101223.31
2022-09-03T18:59:58.360Z,101221.19
2022-09-03T19:02:52.559Z,101222.69
2022-09-03T19:05:43.412Z,101219.16
2022-09-03T19:08:33.574Z,101217.16
2022-09-03T19:11:23.455Z,101227.91
2022-09-03T19:14:09.670Z,101222.00
2022-09-03T19:17:03.500Z,101230.44
2022-09-03T19:20:09.028Z,101230.25
2022-09-03T19:22:55.957Z,101232.28
2022-09-03T19:25:44.209Z,101230.66
2022-09-03T19:28:32.582Z,101239.97
2022-09-03T19:31:33.841Z,101238.22
2022-09-03T19:34:24.756Z,101240.47
2022-09-03T19:37:16.636Z,101242.91
2022-09-03T19:40:13.506Z,101244.84
2022-09-03T19:43:08.283Z,101246.03
2022-09-03T19:45:58.570Z,101248.59
2022-09-03T19:48:53.873Z,101242.81
2022-09-03T19:51:41.144Z,101244.72
2022-09-03T19:54:27.392Z,101249.59
2022-09-03T19:57:13.780Z,101236.03
2022-09-03T20:00:03.813Z,101247.97
2022-09-03T20:02:49.352Z,101248.97
2022-09-03T20:05:37.288Z,101252.34
2022-09-03T20:08:23.443Z,101258.34
2022-09-03T20:10:53.508Z,101254.34
2022-09-03T20:13:21.930Z,101253.69
2022-09-03T20:15:58.103Z,101257.03
2022-09-03T20:18:35.555Z,101256.19
2022-09-03T20:21:11.221Z,101260.59
2022-09-03T20:23:42.693Z,101262.94
2022-09-03T20:26:21.179Z,101262.88
2022-09-03T20:29:12.236Z,101268.03
2022-09-03T20:31:49.164Z,101268.03
2022-09-03T20:34:27.076Z,101269.13
2022-09-03T20:36:58.310Z,101273.25
2022-09-03T20:39:34.682Z,101271.88
2022-09-03T20:42:17.669Z,101279.16
2022-09-03T20:44:54.040Z,101264.91
2022-09-03T20:47:45.595Z,101274.88
2022-09-03T20:50:24.499Z,101266.59
2022-09-03T20:53:03.526Z,101271.88
2022-09-03T20:55:35.472Z,101272.38
2022-09-03T20:58:09.684Z,101282.97
2022-09-03T21:00:50.040Z,101282.81
2022-09-03T21:03:23.272Z,101287.34
2022-09-03T21:06:03.452Z,101285.13
2022-09-03T21:08:53.416Z,101288.59
2022-09-03T21:11:29.793Z,101288.53
2022-09-03T21:14:04.130Z,101293.03
2022-09-03T21:16:39.066Z,101291.56
2022-09-03T21:19:12.618Z,101292.84
2022-09-03T21:21:48.826Z,101296.00
2022-09-03T21:24:20.635Z,101285.69
2022-09-03T21:26:51.893Z,101290.16
2022-09-03T21:29:23.875Z,101286.81
2022-09-03T21:31:56.190Z,101286.31
2022-09-03T21:34:30.903Z,101292.06
2022-09-03T21:36:58.676Z,101288.09
2022-09-03T21:39:29.734Z,101291.91
2022-09-03T21:42:03.103Z,101294.53
2022-09-03T21:44:48.327Z,101300.00
2022-09-03T21:47:17.304Z,101303.34
2022-09-03T21:49:56.458Z,101298.63
2022-09-03T21:52:29.799Z,101298.28
2022-09-03T21:54:57.555Z,101305.97
2022-09-03T21:57:32.779Z,101303.19
2022-09-03T22:00:11.334Z,101297.94
2022-09-03T22:02:39.458Z,101302.69
2022-09-03T22:05:09.021Z,101313.44
2022-09-03T22:07:50.756Z,101305.66
2022-09-03T22:10:26.727Z,101310.53
2022-09-03T22:13:00.730Z,101309.56
2022-09-03T22:15:33.097Z,101315.72
2022-09-03T22:18:03.972Z,101307.38
2022-09-03T22:20:33.275Z,101314.63
2022-09-03T22:23:04.440Z,101316.53
2022-09-03T22:25:37.281Z,101311.59
2022-09-03T22:28:12.916Z,101312.81
2022-09-03T22:30:45.763Z,101324.16
2022-09-03T22:33:19.090Z,101322.56
2022-09-03T22:35:59.394Z,101324.66
2022-09-03T22:38:53.277Z,101325.88
2022-09-03T22:41:36.823Z,101317.22
2022-09-03T22:44:09.174Z,101317.53
2022-09-03T22:46:43.909Z,101316.19
2022-09-03T22:49:17.881Z,101317.22
2022-09-03T22:52:00.422Z,101316.47
2022-09-03T22:54:37.599Z,101319.19
2022-09-03T22:57:09.576Z,101319.66
2022-09-03T22:59:40.171Z,101312.56
2022-09-03T23:02:15.160Z,101315.78
2022-09-03T23:04:48.640Z,101315.44
2022-09-03T23:07:21.840Z,101315.38
2022-09-03T23:09:54.042Z,101314.84
2022-09-03T23:12:27.356Z,101314.66
2022-09-03T23:14:58.603Z,101319.25
2022-09-03T23:22:36.256Z,101322.34
2022-09-03T23:25:07.411Z,101324.66
2022-09-03T23:27:40.053Z,101327.03
2022-09-03T23:30:08.945Z,101317.47
2022-09-03T23:32:36.699Z,101319.41
2022-09-03T23:35:09.157Z,101318.56
2022-09-03T23:37:54.259Z,101325.66
2022-09-03T23:40:30.824Z,101325.53
2022-09-03T23:43:25.138Z,101318.34
2022-09-03T23:46:01.244Z,101324.94
2022-09-03T23:48:40.087Z,101317.53
2022-09-03T23:51:12.686Z,101310.31
2022-09-03T23:53:50.720Z,101321.19
2022-09-03T23:56:39.392Z,101319.22
2022-09-03T23:59:16.422Z,101311.88
